ADDS METAR Data INFO
IDs: Format: Raw Decoded Include TAF

Data at: 2114 UTC 22 Oct 2017

KSET 222054Z AUTO 01010KT 10SM OVC040 13/11 A3004 RMK AO2 RAB18E27 SLP170 P0000 60000 T01330106 50008 $
KSET 221954Z AUTO 35009KT 10SM FEW015 SCT020 OVC030 13/11 A3006 RMK AO2 SLP176 T01330106 $
KSET 221946Z AUTO 35009G19KT 10SM SCT013 BKN020 OVC030 13/11 A3006 RMK AO2 T01330111 $
KSET 221905Z AUTO 32009KT 10SM FEW009 BKN012 OVC022 13/12 A3004 RMK AO2 T01330122 $
KSET 221858Z AUTO 32012G21KT 6SM BR BKN009 BKN014 OVC022 13/12 A3003 RMK AO2 T01330122 $
KSET 221854Z AUTO 32013G21KT 5SM BR BKN012 OVC020 13/12 A3003 RMK AO2 SLP166 T01330122 $
KSET 221819Z AUTO 32015G21KT 3SM BR BKN010 OVC016 13/12 A3003 RMK AO2 T01330122 $
KSET 221808Z AUTO 30012KT 3SM BR BKN008 BKN012 OVC019 14/13 A3002 RMK AO2 T01390133 $
KSET 221754Z AUTO 30013KT 2SM BR BKN010 OVC015 14/13 A3002 RMK AO2 CIG 006V012 SLP162 60000 T01390133 10206 20139 51030 $
KSET 221749Z AUTO 30015KT 1 3/4SM BR BKN007 OVC013 14/13 A3002 RMK AO2 CIG 006V011 $
KSET 221739Z AUTO 30012KT 2 1/2SM BR FEW007 OVC013 14/14 A3001 RMK AO2 T01440139 $
KSET 221713Z AUTO 30011KT 10SM OVC010 15/13 A3000 RMK AO2 CIG 008V013 T01500133 $
KSET 221654Z AUTO 30007KT 10SM OVC007 15/14 A2999 RMK AO2 SLP154 T01500139 $
KSET 221554Z AUTO 29008KT 10SM OVC007 16/15 A2996 RMK AO2 SLP141 T01560150 $
KSET 221454Z AUTO 31007KT 10SM OVC006 16/15 A2993 RMK AO2 SLP131 60000 T01560150 53012 $
KSET 221354Z AUTO 28009KT 10SM BKN008 BKN013 OVC110 17/17 A2991 RMK AO2 RAE17B22E43 SLP125 P0000 T01720167 $
KSET 221318Z AUTO 29010KT 10SM BKN008 BKN036 BKN110 17/17 A2989 RMK AO2 RAE17 P0000 T01720167 TSNO $
KSET 221254Z AUTO 27010KT 7SM -RA SCT006 BKN037 OVC048 18/18 A2989 RMK AO2 SLP119 P0000 T01830183 $
KSET 221251Z AUTO 25008KT 7SM -RA SCT006 BKN037 OVC048 18/18 A2989 RMK AO2 P0000 $
KSET 221242Z AUTO 25007KT 7SM -RA FEW018 BKN035 OVC050 19/18 A2989 RMK AO2 PRESRR P0000 T01890183 $
KSET 221234Z AUTO 25007KT 6SM -RA BR FEW006 BKN016 OVC035 19/18 A2989 RMK AO2 P0000 T01890183 $
KSET 221154Z AUTO 16011KT 9SM -RA OVC025 21/18 A2987 RMK AO2 LTG DSNT NW RAB19E30B54 SLP109 P0000 60000 T02060183 10222 20206 55003 $
KSET 221054Z AUTO 14014KT 10SM OVC023 21/17 A2986 RMK AO2 SLP106 T02110172 $
KSET 220954Z AUTO 14011KT 10SM OVC027 21/17 A2985 RMK AO2 RAB00E19B36E46 SLP103 P0000 T02110172 $
KSET 220854Z AUTO 14012KT 10SM OVC027 21/17 A2988 RMK AO2 SLP111 T02110172 56022 $
KSET 220837Z AUTO 14014KT 10SM BKN028 OVC065 21/17 A2988 RMK AO2 T02110167 $
KSET 220754Z AUTO 14009KT 10SM FEW029 21/17 A2988 RMK AO2 SLP113 T02110167 $
KSET 220654Z AUTO 14017KT 10SM SCT090 22/17 A2990 RMK AO2 SLP120 T02170167 $
KSET 220554Z AUTO 15013G21KT 10SM OVC085 22/17 A2994 RMK AO2 SLP135 T02220167 10244 20222 402720144 58010 $
KSET 220454Z AUTO 14012KT 10SM FEW060 BKN090 22/16 A2996 RMK AO2 SLP141 T02220161 $
KSET 220354Z AUTO 15014KT 10SM SCT050 OVC060 23/16 A2998 RMK AO2 SLP148 T02280156 $
KSET 220254Z AUTO 15012KT 10SM BKN050 OVC060 23/15 A2997 RMK AO2 SLP145 T02330150 53003 $
KSET 220154Z AUTO 14013KT 10SM BKN050 24/15 A2995 RMK AO2 SLP139 T02390150 $
KSET 220054Z AUTO 16014KT 10SM SCT080 24/16 A2995 RMK AO2 SLP138 T02440156 $
KSET 212354Z AUTO 15010KT 10SM FEW055 OVC075 24/16 A2996 RMK AO2 SLP143 T02440161 10272 20200 51004 $
KSET 212254Z AUTO 16013KT 10SM FEW060 BKN080 25/16 A2996 RMK AO2 SLP141 T02500161 $
KSET 212154Z AUTO 17012KT 10SM OVC060 26/16 A2996 RMK AO2 SLP140 T02610161 $
KSET 212054Z AUTO 17018G23KT 10SM BKN050 27/16 A2995 RMK AO2 PK WND 16026/2019 SLP138 T02720161 56025 $
KSET 211954Z AUTO 15014G21KT 10SM 24/17 A2997 RMK AO2 SLP144 T02440167 $
KSET 211901Z AUTO 17011G15KT 10SM FEW003 FEW120 24/17 A2998 RMK AO2 T02390172 $
KSET 211854Z AUTO 18011G24KT 10SM FEW120 24/17 A2998 RMK AO2 SLP149 T02440172 $
KSET 211754Z AUTO 13006KT 10SM BKN100 20/17 A3003 RMK AO2 RAB19E38 SLP164 P0000 60000 T02000167 10222 20156 58008 $
KSET 211654Z AUTO 17010KT 10SM BKN110 21/16 A3005 RMK AO2 SLP172 T02110156 $
KSET 211554Z AUTO 16011KT 10SM CLR 21/14 A3005 RMK AO2 SLP173 T02060144 $
KSET 211454Z AUTO 17007KT 10SM CLR 19/14 A3005 RMK AO2 SLP172 60000 T01940139 53007 $
KSET 211354Z AUTO 15007KT 10SM CLR 18/13 A3003 RMK AO2 SLP167 T01780133 $
KSET 211254Z AUTO 13009KT 10SM FEW095 17/13 A3003 RMK AO2 RAB30E41 SLP165 P0000 T01670128 $
KSET 211154Z AUTO 13007KT 10SM CLR 16/12 A3003 RMK AO2 SLP165 60000 T01560117 10183 20144 56001 $
KSET 211054Z AUTO 11008KT 10SM FEW120 14/11 A3003 RMK AO2 SLP166 T01440111 $
KSET 210954Z AUTO 10009KT 10SM CLR 16/12 A3003 RMK AO2 SLP165 T01610117 $